Wetterdaten: Woche 24.12.18 - 30.12.18 (KW52)
Datum Zeit Temp. A. Feuchte A. Luftdruck Regen Wind Richtung Taupunkt Windchill Windben
24.12.2018 00:00 6,3 C 81 % 1010,8 hPa 1,3 l/m 0,1 km/h N 3,3 C 6,3 C 2,0 km/h
24.12.2018 01:00 6,2 C 81 % 1009,1 hPa 4,4 l/m 0,0 km/h N 3,2 C 6,2 C 0,0 km/h
24.12.2018 02:00 6,1 C 81 % 1007,7 hPa 3,6 l/m 0,0 km/h N 3,1 C 6,1 C 0,0 km/h
24.12.2018 03:00 6,1 C 81 % 1005,3 hPa 0,5 l/m 0,6 km/h N 3,1 C 6,1 C 3,2 km/h
24.12.2018 04:00 6,1 C 82 % 1004,5 hPa 7,0 l/m 0,3 km/h N 3,2 C 6,1 C 4,4 km/h
24.12.2018 05:00 6,2 C 82 % 1005,1 hPa 3,9 l/m 0,3 km/h N 3,4 C 6,2 C 3,2 km/h
24.12.2018 06:00 5,7 C 82 % 1006,8 hPa 2,1 l/m 6,5 km/h N 2,9 C 4,7 C 17,3 km/h
24.12.2018 07:00 4,5 C 82 % 1009,4 hPa 2,1 l/m 10,0 km/h N 1,6 C 1,5 C 23,7 km/h
24.12.2018 08:00 3,4 C 81 % 1011,9 hPa 2,6 l/m 10,9 km/h N 0,4 C -0,4 C 24,9 km/h
24.12.2018 09:00 3,2 C 82 % 1014,1 hPa 1,6 l/m 12,3 km/h N 0,3 C -1,6 C 27,4 km/h
24.12.2018 10:00 3,8 C 82 % 1016,1 hPa 1,0 l/m 9,7 km/h N 0,9 C 1,0 C 27,4 km/h
24.12.2018 11:00 4,2 C 81 % 1017,3 hPa 0,5 l/m 9,1 km/h N 1,2 C 1,9 C 27,8 km/h
24.12.2018 12:00 5,3 C 81 % 1018,0 hPa 0,0 l/m 10,7 km/h N 2,3 C 1,9 C 28,6 km/h
24.12.2018 13:00 5,6 C 78 % 1018,7 hPa 0,0 l/m 15,4 km/h N 2,0 C -0,4 C 38,6 km/h
24.12.2018 14:00 4,6 C 74 % 1020,1 hPa 0,0 l/m 16,9 km/h N 0,4 C -2,3 C 38,6 km/h
24.12.2018 15:00 4,6 C 72 % 1021,8 hPa 0,0 l/m 12,5 km/h N 0,0 C 0,1 C 33,0 km/h
24.12.2018 16:00 3,8 C 71 % 1022,8 hPa 0,0 l/m 11,8 km/h N -0,9 C -0,4 C 32,2 km/h
24.12.2018 17:00 3,7 C 73 % 1023,5 hPa 0,0 l/m 11,6 km/h N -0,7 C -0,5 C 30,6 km/h
24.12.2018 18:00 3,5 C 74 % 1025,0 hPa 0,0 l/m 7,6 km/h N -0,7 C 2,1 C 28,2 km/h
24.12.2018 19:00 3,1 C 76 % 1025,8 hPa 0,0 l/m 2,3 km/h N -0,8 C 3,1 C 14,5 km/h
24.12.2018 20:00 3,5 C 76 % 1026,6 hPa 0,0 l/m 8,0 km/h N -0,3 C 1,8 C 25,7 km/h
24.12.2018 21:00 3,4 C 74 % 1027,1 hPa 0,0 l/m 8,9 km/h N -0,9 C 1,2 C 27,4 km/h
24.12.2018 22:00 3,3 C 74 % 1027,9 hPa 0,0 l/m 4,7 km/h N -0,8 C 3,3 C 21,7 km/h
24.12.2018 23:00 3,3 C 75 % 1028,4 hPa 0,0 l/m 7,0 km/h N -0,7 C 2,2 C 22,9 km/h
25.12.2018 00:00 2,4 C 80 % 1029,2 hPa 0,0 l/m 6,3 km/h N -0,7 C 1,8 C 23,7 km/h
25.12.2018 01:00 1,9 C 76 % 1029,7 hPa 0,0 l/m 7,5 km/h N -1,9 C 0,8 C 25,3 km/h
25.12.2018 02:00 1,8 C 73 % 1029,7 hPa 0,0 l/m 7,4 km/h N -2,5 C 0,8 C 25,8 km/h
25.12.2018 03:00 1,9 C 71 % 1029,8 hPa 0,0 l/m 5,4 km/h N -2,7 C 1,9 C 19,7 km/h
25.12.2018 04:00 2,3 C 68 % 1029,3 hPa 0,0 l/m 6,7 km/h N -3,1 C 1,5 C 23,7 km/h
25.12.2018 05:00 3,3 C 62 % 1028,7 hPa 0,0 l/m 11,2 km/h N -3,3 C -0,6 C 31,0 km/h
25.12.2018 06:00 3,6 C 62 % 1028,7 hPa 0,0 l/m 9,3 km/h N -3,0 C 1,1 C 29,4 km/h
25.12.2018 07:00 3,7 C 68 % 1028,9 hPa 0,0 l/m 9,1 km/h N -1,7 C 1,3 C 27,8 km/h
25.12.2018 08:00 3,4 C 72 % 1028,9 hPa 0,0 l/m 6,9 km/h N -1,1 C 2,9 C 25,3 km/h
25.12.2018 09:00 2,6 C 80 % 1029,2 hPa 0,5 l/m 9,0 km/h N -0,6 C 0,3 C 28,2 km/h
25.12.2018 10:00 2,5 C 82 % 1029,3 hPa 0,8 l/m 9,4 km/h N -0,3 C -0,2 C 25,4 km/h
25.12.2018 11:00 2,5 C 82 % 1029,2 hPa 0,8 l/m 9,6 km/h N -0,2 C -0,3 C 31,0 km/h
25.12.2018 12:00 2,7 C 82 % 1028,6 hPa 0,3 l/m 10,1 km/h N -0,1 C -0,5 C 27,8 km/h
25.12.2018 13:00 2,9 C 81 % 1029,0 hPa 0,5 l/m 10,5 km/h N -0,1 C -0,6 C 29,0 km/h
25.12.2018 14:00 3,8 C 78 % 1029,1 hPa 0,0 l/m 9,1 km/h N 0,2 C 1,4 C 27,7 km/h
25.12.2018 15:00 3,8 C 74 % 1029,2 hPa 0,0 l/m 10,4 km/h N -0,4 C 0,6 C 28,6 km/h
25.12.2018 16:00 3,7 C 73 % 1029,0 hPa 0,0 l/m 14,2 km/h N -0,7 C -2,0 C 41,5 km/h
25.12.2018 17:00 3,8 C 73 % 1029,4 hPa 0,0 l/m 13,2 km/h N -0,6 C -1,4 C 37,0 km/h
25.12.2018 18:00 3,9 C 72 % 1029,9 hPa 0,0 l/m 11,6 km/h N -0,6 C -0,2 C 34,6 km/h
25.12.2018 19:00 3,9 C 72 % 1029,8 hPa 0,0 l/m 10,9 km/h N -0,7 C 0,3 C 33,4 km/h
25.12.2018 20:00 4,0 C 71 % 1030,1 hPa 0,0 l/m 9,8 km/h N -0,7 C 1,1 C 30,2 km/h
25.12.2018 21:00 4,0 C 69 % 1030,1 hPa 0,0 l/m 9,3 km/h N -1,1 C 1,8 C 27,8 km/h
25.12.2018 22:00 3,9 C 70 % 1030,4 hPa 0,0 l/m 7,6 km/h N -1,2 C 2,5 C 26,1 km/h
25.12.2018 23:00 3,9 C 70 % 1030,4 hPa 0,0 l/m 8,1 km/h N -1,2 C 2,3 C 24,5 km/h
26.12.2018 00:00 4,0 C 69 % 1030,6 hPa 0,0 l/m 6,4 km/h N -1,2 C 3,6 C 22,9 km/h
26.12.2018 01:00 3,9 C 69 % 1030,8 hPa 0,0 l/m 6,9 km/h N -1,4 C 3,3 C 25,4 km/h
26.12.2018 02:00 3,7 C 70 % 1030,9 hPa 0,0 l/m 4,6 km/h N -1,3 C 3,7 C 20,5 km/h
26.12.2018 03:00 3,5 C 71 % 1030,4 hPa 0,0 l/m 3,8 km/h N -1,2 C 3,5 C 18,5 km/h
26.12.2018 04:00 3,3 C 71 % 1030,0 hPa 0,0 l/m 5,2 km/h N -1,5 C 2,9 C 24,9 km/h
26.12.2018 05:00 3,0 C 72 % 1029,8 hPa 0,0 l/m 7,3 km/h N -1,6 C 2,1 C 24,9 km/h
26.12.2018 06:00 3,3 C 70 % 1029,7 hPa 0,0 l/m 7,5 km/h N -1,7 C 1,9 C 22,9 km/h
26.12.2018 07:00 3,6 C 67 % 1029,4 hPa 0,0 l/m 8,4 km/h N -1,9 C 1,9 C 28,2 km/h
26.12.2018 08:00 3,6 C 67 % 1029,4 hPa 0,0 l/m 8,0 km/h N -2,0 C 2,1 C 28,6 km/h
26.12.2018 09:00 4,1 C 65 % 1029,2 hPa 0,0 l/m 6,4 km/h N -1,9 C 3,5 C 24,1 km/h
26.12.2018 10:00 4,9 C 63 % 1028,9 hPa 0,0 l/m 10,4 km/h N -1,6 C 1,8 C 30,6 km/h
26.12.2018 11:00 5,3 C 62 % 1028,4 hPa 0,0 l/m 7,6 km/h N -1,4 C 4,2 C 25,7 km/h
26.12.2018 12:00 5,8 C 59 % 1027,9 hPa 0,0 l/m 7,1 km/h N -1,5 C 5,0 C 21,3 km/h
26.12.2018 13:00 6,1 C 58 % 1027,9 hPa 0,0 l/m 8,3 km/h N -1,7 C 4,4 C 25,7 km/h
26.12.2018 14:00 5,9 C 59 % 1028,0 hPa 0,0 l/m 8,4 km/h N -1,5 C 4,2 C 29,8 km/h
26.12.2018 15:00 5,2 C 62 % 1027,9 hPa 0,0 l/m 7,8 km/h N -1,6 C 4,1 C 22,5 km/h
26.12.2018 16:00 4,5 C 62 % 1027,9 hPa 0,0 l/m 7,8 km/h N -2,1 C 3,3 C 24,5 km/h
26.12.2018 17:00 3,9 C 65 % 1028,2 hPa 0,0 l/m 4,0 km/h N -2,0 C 3,8 C 18,1 km/h
26.12.2018 18:00 4,2 C 66 % 1028,2 hPa 0,0 l/m 9,6 km/h N -1,7 C 1,6 C 30,2 km/h
26.12.2018 19:00 5,1 C 63 % 1028,2 hPa 0,0 l/m 7,8 km/h N -1,4 C 3,9 C 22,5 km/h
26.12.2018 20:00 5,4 C 64 % 1028,2 hPa 0,0 l/m 6,9 km/h N -1,0 C 4,8 C 22,5 km/h
26.12.2018 21:00 5,0 C 65 % 1028,0 hPa 0,0 l/m 5,9 km/h N -0,9 C 4,6 C 21,3 km/h
26.12.2018 22:00 4,9 C 68 % 1027,4 hPa 0,0 l/m 9,6 km/h N -0,6 C 2,3 C 29,0 km/h
26.12.2018 23:00 5,1 C 69 % 1027,4 hPa 0,0 l/m 6,3 km/h N -0,2 C 4,8 C 22,9 km/h
27.12.2018 00:00 5,3 C 71 % 1027,6 hPa 0,0 l/m 6,5 km/h N 0,4 C 4,8 C 25,3 km/h
27.12.2018 01:00 4,8 C 76 % 1027,9 hPa 0,0 l/m 10,4 km/h N 0,8 C 1,6 C 26,5 km/h
27.12.2018 02:00 4,7 C 79 % 1028,2 hPa 0,0 l/m 9,5 km/h N 1,3 C 2,1 C 23,3 km/h
27.12.2018 03:00 4,9 C 79 % 1028,0 hPa 0,0 l/m 3,8 km/h N 1,5 C 4,9 C 17,7 km/h
27.12.2018 04:00 5,3 C 79 % 1027,7 hPa 0,0 l/m 2,8 km/h N 1,9 C 5,3 C 15,3 km/h
27.12.2018 05:00 5,6 C 78 % 1027,6 hPa 0,0 l/m 3,4 km/h N 2,2 C 5,6 C 17,7 km/h
27.12.2018 06:00 5,6 C 78 % 1027,9 hPa 0,0 l/m 1,2 km/h N 2,1 C 5,6 C 10,0 km/h
27.12.2018 07:00 5,8 C 79 % 1028,0 hPa 0,0 l/m 1,1 km/h N 2,4 C 5,8 C 8,1 km/h
27.12.2018 08:00 6,6 C 77 % 1027,5 hPa 0,0 l/m 3,7 km/h N 2,9 C 6,6 C 15,3 km/h
27.12.2018 09:00 7,7 C 76 % 1027,5 hPa 0,0 l/m 4,5 km/h N 3,7 C 7,7 C 16,9 km/h
27.12.2018 10:00 8,3 C 75 % 1027,3 hPa 0,0 l/m 3,0 km/h N 4,1 C 8,3 C 14,1 km/h
27.12.2018 11:00 8,9 C 74 % 1026,6 hPa 0,0 l/m 3,2 km/h N 4,6 C 8,9 C 13,3 km/h
27.12.2018 12:00 9,8 C 72 % 1025,3 hPa 0,0 l/m 0,7 km/h N 4,8 C 9,8 C 7,6 km/h
27.12.2018 13:00 10,2 C 71 % 1024,8 hPa 0,0 l/m 0,6 km/h N 5,1 C 10,2 C 4,0 km/h
27.12.2018 14:00 9,9 C 70 % 1024,7 hPa 0,0 l/m 3,2 km/h N 4,6 C 9,9 C 8,0 km/h
27.12.2018 15:00 9,0 C 71 % 1024,5 hPa 0,0 l/m 0,9 km/h N 3,9 C 9,0 C 5,6 km/h
27.12.2018 16:00 7,8 C 74 % 1024,4 hPa 0,0 l/m 2,3 km/h N 3,4 C 7,8 C 7,6 km/h
27.12.2018 17:00 7,2 C 75 % 1024,4 hPa 0,0 l/m 0,1 km/h N 3,0 C 7,2 C 1,6 km/h
27.12.2018 18:00 5,6 C 76 % 1024,6 hPa 0,0 l/m 0,0 km/h N 1,7 C 5,6 C 0,0 km/h
27.12.2018 19:00 3,8 C 79 % 1024,6 hPa 0,0 l/m 0,0 km/h N 0,4 C 3,8 C 0,0 km/h
27.12.2018 20:00 2,8 C 81 % 1024,6 hPa 0,0 l/m 0,0 km/h N -0,2 C 2,8 C 0,0 km/h
27.12.2018 21:00 1,7 C 82 % 1024,6 hPa 0,0 l/m 0,0 km/h N -1,0 C 1,7 C 0,0 km/h
27.12.2018 22:00 1,2 C 82 % 1024,3 hPa 0,0 l/m 0,0 km/h N -1,6 C 1,2 C 0,0 km/h
27.12.2018 23:00 0,9 C 82 % 1023,8 hPa 0,0 l/m 0,0 km/h N -1,8 C 0,9 C 0,0 km/h
28.12.2018 00:00 0,4 C 82 % 1023,5 hPa 0,0 l/m 0,0 km/h N -2,3 C 0,4 C 0,0 km/h
28.12.2018 01:00 -0,2 C 82 % 1023,4 hPa 0,0 l/m 0,0 km/h N -2,9 C -0,2 C 0,0 km/h
28.12.2018 02:00 0,1 C 82 % 1023,5 hPa 0,0 l/m 0,0 km/h N -2,7 C 0,1 C 0,0 km/h
28.12.2018 03:00 2,3 C 82 % 1023,2 hPa 0,0 l/m 0,2 km/h N -0,5 C 2,3 C 4,0 km/h
28.12.2018 04:00 4,5 C 82 % 1022,8 hPa 0,0 l/m 0,9 km/h N 1,6 C 4,5 C 6,5 km/h
28.12.2018 05:00 6,2 C 72 % 1022,8 hPa 0,0 l/m 2,8 km/h N 1,5 C 6,2 C 13,3 km/h
28.12.2018 06:00 6,4 C 64 % 1022,9 hPa 0,0 l/m 1,1 km/h N 0,1 C 6,4 C 4,4 km/h
28.12.2018 07:00 5,7 C 64 % 1023,1 hPa 0,0 l/m 0,2 km/h N -0,5 C 5,7 C 4,8 km/h
28.12.2018 08:00 6,9 C 57 % 1022,9 hPa 0,0 l/m 1,9 km/h N -1,1 C 6,9 C 11,7 km/h
28.12.2018 09:00 8,1 C 55 % 1022,6 hPa 0,0 l/m 7,6 km/h N -0,5 C 6,7 C 28,5 km/h
28.12.2018 10:00 8,3 C 55 % 1023,1 hPa 0,0 l/m 12,5 km/h N -0,2 C 4,4 C 29,0 km/h
28.12.2018 11:00 8,9 C 47 % 1023,0 hPa 0,0 l/m 7,5 km/h N -1,7 C 7,8 C 24,5 km/h
28.12.2018 12:00 9,5 C 46 % 1022,6 hPa 0,0 l/m 8,4 km/h N -1,7 C 8,0 C 25,3 km/h
28.12.2018 13:00 9,4 C 50 % 1022,2 hPa 0,0 l/m 10,4 km/h N -0,7 C 6,7 C 27,4 km/h
28.12.2018 14:00 9,0 C 51 % 1022,2 hPa 0,0 l/m 10,8 km/h N -0,5 C 6,1 C 29,0 km/h
28.12.2018 15:00 8,3 C 52 % 1022,5 hPa 0,0 l/m 10,8 km/h N -1,0 C 5,2 C 29,4 km/h
28.12.2018 16:00 7,6 C 56 % 1023,4 hPa 0,0 l/m 9,1 km/h N -0,6 C 5,6 C 26,1 km/h
28.12.2018 17:00 7,2 C 56 % 1024,2 hPa 0,0 l/m 7,5 km/h N -1,1 C 6,4 C 24,5 km/h
28.12.2018 18:00 6,5 C 59 % 1024,7 hPa 0,0 l/m 6,4 km/h N -1,0 C 5,8 C 21,3 km/h
28.12.2018 19:00 6,0 C 63 % 1025,1 hPa 0,0 l/m 6,0 km/h N -0,5 C 5,9 C 20,5 km/h
28.12.2018 20:00 5,5 C 66 % 1025,5 hPa 0,0 l/m 5,6 km/h N -0,3 C 5,3 C 20,9 km/h
28.12.2018 21:00 5,3 C 68 % 1026,0 hPa 0,0 l/m 4,3 km/h N -0,1 C 5,3 C 16,9 km/h
28.12.2018 22:00 5,3 C 68 % 1026,4 hPa 0,0 l/m 5,6 km/h N -0,1 C 5,1 C 18,9 km/h
28.12.2018 23:00 5,2 C 68 % 1026,4 hPa 0,0 l/m 6,4 km/h N -0,2 C 5,2 C 20,9 km/h
Min-Datum _ 28.12.18 28.12.18 24.12.18 - 24.12.18 - 25.12.18 24.12.18 24.12.18
_ Min-Zeit 01:45 12:15 04:45 - 00:15 - 05:15 14:15 00:15
Minimum _ -0,3 C 44 % 1004,3 hPa - 0,0 km/h - -3,5 C -3,9 C 0,0 km/h
Max-Datum _ 27.12.18 24.12.18 26.12.18 24.12.18 24.12.18 - 27.12.18 27.12.18 25.12.18
_ Max-Zeit 13:30 04:30 02:30 04:00 14:15 - 13:15 13:30 16:45
Maximum _ 10,4 C 82 % 1031,0 hPa 7,0 l/m 20,1 km/h
N
- 5,4 C 10,4 C 46,7 km/h
N
Durchschnitt _ 4,8 C 71 % 1025,0 hPa #33,5 l/m 6,3 km/h N -0,0 C 3,4 C 20,2 km/h